Kezdőlap
METAR-TAF:

METAR-TAF

Repülőterek :

Kartúm, Szudán

földrajzi szélesség: 15-36N, földrajzi hosszúság: 032-33E, magasság: 382 m

Jelenlegi meteorológiai megfigyelések

A jelentés 3 órával és 11 perccel ezelõtt készült, 10:30 UTC
Északi szél 12 kt
Hőmérséklet 39°C
Páratartalom 10%
Légköri nyomás 1010 hPa
Látótávolság 10 km, vagy több
felhőtlen 1500 m magasságban, és nincs gomolyfelhõ

METAR: HSSS 191030Z 01012KT CAVOK 39/02 Q1010 N0SIG

Idő: 16:41 (13:41 UTC)

Előrejelzés

A jelentés 2 órával és 41 perccel ezelõtt készült, 11:00 UTC
Az előrejelzés 19-én 12 óra UTC és 20-én 18 óra UTC között érvényes
Észak-északkeleti szél 12 kt széllökések: 22 kt
Látótávolság 10 km, vagy több
felhőtlen 1500 m magasságban, és nincs gomolyfelhõ
Valószínűség 30% :
19-én 12 óra UTC és 19-én 15 óra UTC között ideiglenes
Látótávolság: 6000 m

TAF: HSSS 191100Z 1912/2018 02012G22KT CAVOK PROB30 TEMPO 1912/1915 6000 NSC

Meteorológiai megfigyelések és előrejelzések több, mint 4000 repülőtéren (METAR és TAF jelentéseket).

A térképen piros és sárga pontok jelzik az elérhető meteorológiai állomásokat.

Mozgassa az egeret a pont fölött, hogy megjelenjen az állomás neve.

Azután kattintson az időjárási megfigyelések és előrejelzések megtekintéséhez.

A térkép megváltoztatása: kattintson a fekete keresztel jelölt zöld gombra ráközelítéshez, a vonallal jelölt zöld gombra távolításhoz, vagy a zöld nyilakra a szomszédos térképek eléréséhez.


METAR-TAF: